Rolls, Texas
Current Conditions -  °F | °C
As of 5:58 PM on Saturday 25 Oct 2014 (Local Time) from KDYS Reporting Station
Clear Clear  
Wind Chill: 30°   Ceiling: Unl
Heat Index: 30°   Visibility: 10mi
Dew Point: 12°   Wind: 10mph
Humidity: 32%   Direction: 190°S
Pressure: 30.07"   Gusts: NA
Location:  33.1968°N, 99.9025°W
Report Text: KDYS 252258Z AUTO 19009KT 10SM CLR 30/12 A3007 RMK AO2 SLP141 T03020116 $
Loading
Personal Weather Stations






























Interactive Weather Map
Tropical Storm Tracking
New forecast layout! Learn more

10-Day Weather Forecast

Advertisements
Track Severe Weather on mobile